createdAt,value
2016-02-04T00:00:18.136Z,1015.61
2016-02-04T00:01:13.904Z,1015.57
2016-02-04T00:02:13.969Z,1015.57
2016-02-04T00:03:14.018Z,1015.55
2016-02-04T00:04:14.068Z,1015.55
2016-02-04T00:05:14.118Z,1015.53
2016-02-04T00:06:14.183Z,1015.47
2016-02-04T00:07:14.232Z,1015.49
2016-02-04T00:08:14.281Z,1015.51
2016-02-04T00:09:14.347Z,1015.51
2016-02-04T00:10:14.397Z,1015.45
2016-02-04T00:11:14.447Z,1015.44
2016-02-04T00:12:14.495Z,1015.52
2016-02-04T00:13:18.974Z,1015.48
2016-02-04T00:14:19.039Z,1015.48
2016-02-04T00:15:14.664Z,1015.52
2016-02-04T00:16:14.713Z,1015.46
2016-02-04T00:17:14.762Z,1015.47
2016-02-04T00:18:14.829Z,1015.42
2016-02-04T00:19:14.878Z,1015.45
2016-02-04T00:20:14.943Z,1015.46
2016-02-04T00:21:14.992Z,1015.47
2016-02-04T00:22:15.043Z,1015.51
2016-02-04T00:23:15.092Z,1015.46
2016-02-04T00:24:15.142Z,1015.5
2016-02-04T00:25:15.192Z,1015.56
2016-02-04T00:26:15.256Z,1015.54
2016-02-04T00:27:15.306Z,1015.52
2016-02-04T00:28:15.356Z,1015.53
2016-02-04T00:29:15.421Z,1015.54
2016-02-04T00:30:15.470Z,1015.56
2016-02-04T00:31:15.520Z,1015.63
2016-02-04T00:32:15.570Z,1015.66
2016-02-04T00:33:15.620Z,1015.66
2016-02-04T00:34:15.685Z,1015.67
2016-02-04T00:35:20.501Z,1015.7
2016-02-04T00:36:15.784Z,1015.69
2016-02-04T00:37:15.850Z,1015.68
2016-02-04T00:38:15.899Z,1015.63
2016-02-04T00:39:15.948Z,1015.63
2016-02-04T00:40:15.998Z,1015.59
2016-02-04T00:41:16.053Z,1015.66
2016-02-04T00:42:16.118Z,1015.65
2016-02-04T00:43:16.168Z,1015.63
2016-02-04T00:44:16.218Z,1015.64
2016-02-04T00:45:16.268Z,1015.61
2016-02-04T00:46:16.318Z,1015.63
2016-02-04T00:47:16.383Z,1015.58
2016-02-04T00:48:16.437Z,1015.58
2016-02-04T00:49:16.486Z,1015.57
2016-02-04T00:50:16.536Z,1015.59
2016-02-04T00:51:16.601Z,1015.62
2016-02-04T00:52:16.652Z,1015.64
2016-02-04T00:53:16.701Z,1015.61
2016-02-04T00:54:16.751Z,1015.61
2016-02-04T00:55:16.801Z,1015.64
2016-02-04T00:56:16.865Z,1015.62
2016-02-04T00:57:16.916Z,1015.62
2016-02-04T00:58:16.966Z,1015.66
2016-02-04T00:59:17.015Z,1015.68
2016-02-04T01:00:17.081Z,1015.7
2016-02-04T01:01:17.130Z,1015.74
2016-02-04T01:02:17.179Z,1015.71
2016-02-04T01:03:17.230Z,1015.75
2016-02-04T01:04:17.280Z,1015.73
2016-02-04T01:05:17.346Z,1015.78
2016-02-04T01:06:21.958Z,1015.77
2016-02-04T01:07:17.444Z,1015.85
2016-02-04T01:08:17.510Z,1015.86
2016-02-04T01:09:22.139Z,1015.88
2016-02-04T01:10:22.219Z,1015.94
2016-02-04T01:11:17.659Z,1016
2016-02-04T01:12:17.710Z,1016
2016-02-04T01:13:17.775Z,1016
2016-02-04T01:14:17.833Z,1016.02
2016-02-04T01:15:17.855Z,1016.07
2016-02-04T01:16:17.894Z,1016.09
2016-02-04T01:17:17.949Z,1016.09
2016-02-04T01:18:17.988Z,1016.1
2016-02-04T01:19:18.032Z,1016.16
2016-02-04T01:20:18.077Z,1016.15
2016-02-04T01:21:18.139Z,1016.1
2016-02-04T01:22:18.184Z,1016.08
2016-02-04T01:23:18.231Z,1016.07
2016-02-04T01:24:18.279Z,1016.05
2016-02-04T01:25:18.327Z,1015.99
2016-02-04T01:26:18.391Z,1016.05
2016-02-04T01:27:18.440Z,1016.09
2016-02-04T01:28:18.488Z,1016.11
2016-02-04T01:29:18.536Z,1016.12
2016-02-04T01:30:18.601Z,1016.13
2016-02-04T01:31:18.650Z,1016.16
2016-02-04T01:32:18.715Z,1016.18
2016-02-04T01:33:18.749Z,1016.19
2016-02-04T01:34:18.813Z,1016.18
2016-02-04T01:35:18.863Z,1016.16
2016-02-04T01:36:18.914Z,1016.17
2016-02-04T01:37:18.964Z,1016.18
2016-02-04T01:38:19.013Z,1016.19
2016-02-04T01:39:19.077Z,1016.23
2016-02-04T01:40:19.127Z,1016.23
2016-02-04T01:41:19.177Z,1016.25
2016-02-04T01:42:19.227Z,1016.2
2016-02-04T01:43:19.291Z,1016.22
2016-02-04T01:44:19.341Z,1016.2
2016-02-04T01:45:19.387Z,1016.19
2016-02-04T01:46:19.452Z,1016.2
2016-02-04T01:47:19.501Z,1016.22
2016-02-04T01:48:19.551Z,1016.22
2016-02-04T01:49:19.601Z,1016.23
2016-02-04T01:50:19.667Z,1016.22
2016-02-04T01:51:19.717Z,1016.18
2016-02-04T01:52:19.765Z,1016.25
2016-02-04T01:53:19.815Z,1016.21
2016-02-04T01:54:19.880Z,1016.21
2016-02-04T01:55:19.931Z,1016.21
2016-02-04T01:56:19.980Z,1016.24
2016-02-04T01:57:20.045Z,1016.23
2016-02-04T01:58:20.094Z,1016.23
2016-02-04T01:59:24.426Z,1016.18
2016-02-04T02:00:24.553Z,1016.16
2016-02-04T02:01:20.241Z,1016.17
2016-02-04T02:02:20.306Z,1016.19
2016-02-04T02:03:24.949Z,1016.19
2016-02-04T02:04:20.405Z,1016.2
2016-02-04T02:05:20.455Z,1016.22
2016-02-04T02:06:20.520Z,1016.18
2016-02-04T02:07:20.569Z,1016.16
2016-02-04T02:08:20.620Z,1016.12
2016-02-04T02:09:20.670Z,1016.09
2016-02-04T02:10:20.720Z,1016.07
2016-02-04T02:11:20.801Z,1016.05
2016-02-04T02:12:20.834Z,1016.07
2016-02-04T02:13:20.883Z,1016.06
2016-02-04T02:14:20.948Z,1016.03
2016-02-04T02:15:20.983Z,1016.01
2016-02-04T02:16:21.053Z,1016.01
2016-02-04T02:17:21.103Z,1016.01
2016-02-04T02:18:21.155Z,1016.03
2016-02-04T02:19:21.204Z,1016.05
2016-02-04T02:20:21.253Z,1016.04
2016-02-04T02:21:21.318Z,1016.02
2016-02-04T02:22:21.368Z,1016.02
2016-02-04T02:23:21.418Z,1016.04
2016-02-04T02:24:21.467Z,1015.95
2016-02-04T02:25:21.532Z,1016.03
2016-02-04T02:26:21.582Z,1015.98
2016-02-04T02:27:21.631Z,1016.03
2016-02-04T02:28:21.681Z,1015.99
2016-02-04T02:29:21.731Z,1015.99
2016-02-04T02:30:21.796Z,1015.96
2016-02-04T02:31:21.846Z,1015.94
2016-02-04T02:32:21.896Z,1016.02
2016-02-04T02:33:21.960Z,1015.98
2016-02-04T02:34:26.166Z,1015.92
2016-02-04T02:35:22.059Z,1015.92
2016-02-04T02:36:22.110Z,1015.96
2016-02-04T02:37:22.159Z,1015.92
2016-02-04T02:38:22.224Z,1015.96
2016-02-04T02:39:22.273Z,1015.95
2016-02-04T02:40:22.325Z,1015.98
2016-02-04T02:41:22.375Z,1015.97
2016-02-04T02:42:22.424Z,1015.89
2016-02-04T02:43:22.489Z,1015.92
2016-02-04T02:44:22.538Z,1015.86
2016-02-04T02:45:22.588Z,1015.87
2016-02-04T02:46:22.637Z,1015.86
2016-02-04T02:47:22.704Z,1015.82
2016-02-04T02:48:22.754Z,1015.82
2016-02-04T02:49:22.835Z,1015.8
2016-02-04T02:50:22.853Z,1015.81
2016-02-04T02:51:22.919Z,1015.79
2016-02-04T02:52:22.973Z,1015.81
2016-02-04T02:53:23.006Z,1015.76
2016-02-04T02:54:23.072Z,1015.83
2016-02-04T02:55:27.402Z,1015.84
2016-02-04T02:56:27.499Z,1015.83
2016-02-04T02:57:23.236Z,1015.81
2016-02-04T02:58:23.286Z,1015.8
2016-02-04T02:59:23.337Z,1015.77
2016-02-04T03:00:23.386Z,1015.75
2016-02-04T03:01:23.451Z,1015.69
2016-02-04T03:02:23.486Z,1015.7
2016-02-04T03:03:23.550Z,1015.73
2016-02-04T03:04:23.600Z,1015.71
2016-02-04T03:05:23.666Z,1015.78
2016-02-04T03:06:23.715Z,1015.71
2016-02-04T03:07:23.764Z,1015.8
2016-02-04T03:08:23.813Z,1015.73
2016-02-04T03:09:28.394Z,1015.77
2016-02-04T03:10:28.476Z,1015.74
2016-02-04T03:11:23.976Z,1015.78
2016-02-04T03:12:24.025Z,1015.79
2016-02-04T03:13:24.075Z,1015.8
2016-02-04T03:14:24.124Z,1015.82
2016-02-04T03:15:24.190Z,1015.8
2016-02-04T03:16:24.240Z,1015.83
2016-02-04T03:17:24.289Z,1015.85
2016-02-04T03:18:24.339Z,1015.78
2016-02-04T03:19:24.392Z,1015.78
2016-02-04T03:20:24.443Z,1015.77
2016-02-04T03:21:24.508Z,1015.8
2016-02-04T03:22:24.574Z,1015.79
2016-02-04T03:23:24.608Z,1015.8
2016-02-04T03:24:24.659Z,1015.84
2016-02-04T03:25:24.724Z,1015.89
2016-02-04T03:26:24.774Z,1015.83
2016-02-04T03:27:24.824Z,1015.82
2016-02-04T03:28:24.873Z,1015.84
2016-02-04T03:29:24.923Z,1015.83
2016-02-04T03:30:24.987Z,1015.9
2016-02-04T03:31:25.038Z,1015.94
2016-02-04T03:32:25.104Z,1015.92
2016-02-04T03:33:25.138Z,1015.94
2016-02-04T03:34:25.203Z,1015.94
2016-02-04T03:35:25.252Z,1015.98
2016-02-04T03:36:31.572Z,1015.98
2016-02-04T03:37:25.356Z,1015.97
2016-02-04T03:38:25.407Z,1015.98
2016-02-04T03:39:25.456Z,1015.97
2016-02-04T03:40:29.756Z,1015.95
2016-02-04T03:41:25.571Z,1015.94
2016-02-04T03:42:25.620Z,1015.88
2016-02-04T03:43:30.015Z,1015.95
2016-02-04T03:44:30.001Z,1015.82
2016-02-04T03:45:25.785Z,1015.82
2016-02-04T03:46:25.835Z,1015.76
2016-02-04T03:47:25.876Z,1015.74
2016-02-04T03:48:25.942Z,1015.72
2016-02-04T03:49:25.991Z,1015.78
2016-02-04T03:50:26.041Z,1015.79
2016-02-04T03:51:26.091Z,1015.84
2016-02-04T03:52:26.157Z,1015.86
2016-02-04T03:53:26.207Z,1015.81
2016-02-04T03:54:26.255Z,1015.75
2016-02-04T03:55:26.305Z,1015.75
2016-02-04T03:56:26.357Z,1015.7
2016-02-04T03:57:31.031Z,1015.76
2016-02-04T03:58:31.065Z,1015.7
2016-02-04T03:59:26.521Z,1015.62
2016-02-04T04:00:26.570Z,1015.6
2016-02-04T04:01:26.620Z,1015.61
2016-02-04T04:02:26.686Z,1015.61
2016-02-04T04:03:26.737Z,1015.63
2016-02-04T04:04:26.786Z,1015.65
2016-02-04T04:05:26.836Z,1015.63
2016-02-04T04:06:26.902Z,1015.65
2016-02-04T04:07:26.952Z,1015.63
2016-02-04T04:08:26.990Z,1015.66
2016-02-04T04:09:27.054Z,1015.67
2016-02-04T04:10:27.104Z,1015.68
2016-02-04T04:11:27.155Z,1015.63
2016-02-04T04:12:27.205Z,1015.62
2016-02-04T04:13:27.269Z,1015.63
2016-02-04T04:14:27.319Z,1015.62
2016-02-04T04:15:27.368Z,1015.58
2016-02-04T04:16:27.433Z,1015.61
2016-02-04T04:17:27.480Z,1015.57
2016-02-04T04:18:27.529Z,1015.56
2016-02-04T04:19:27.578Z,1015.48
2016-02-04T04:20:27.644Z,1015.44
2016-02-04T04:21:27.694Z,1015.41
2016-02-04T04:22:27.744Z,1015.38
2016-02-04T04:23:32.295Z,1015.38
2016-02-04T04:24:32.377Z,1015.35
2016-02-04T04:25:27.895Z,1015.36
2016-02-04T04:26:27.960Z,1015.42
2016-02-04T04:27:28.010Z,1015.38
2016-02-04T04:28:28.060Z,1015.43
2016-02-04T04:29:28.109Z,1015.44
2016-02-04T04:30:28.175Z,1015.42
2016-02-04T04:31:28.225Z,1015.44
2016-02-04T04:32:28.274Z,1015.41
2016-02-04T04:33:28.324Z,1015.39
2016-02-04T04:34:28.374Z,1015.39
2016-02-04T04:35:28.441Z,1015.4
2016-02-04T04:36:28.491Z,1015.36
2016-02-04T04:37:28.539Z,1015.36
2016-02-04T04:38:28.589Z,1015.37
2016-02-04T04:39:28.639Z,1015.32
2016-02-04T04:40:28.688Z,1015.28
2016-02-04T04:41:28.755Z,1015.35
2016-02-04T04:42:28.803Z,1015.37
2016-02-04T04:43:28.869Z,1015.34
2016-02-04T04:44:28.903Z,1015.36
2016-02-04T04:45:28.969Z,1015.28
2016-02-04T04:46:29.021Z,1015.28
2016-02-04T04:47:29.071Z,1015.19
2016-02-04T04:48:29.120Z,1015.21
2016-02-04T04:49:29.171Z,1015.19
2016-02-04T04:50:33.533Z,1015.21
2016-02-04T04:51:29.283Z,1015.14
2016-02-04T04:52:29.332Z,1015.13
2016-02-04T04:53:29.382Z,1015.1
2016-02-04T04:54:29.432Z,1015.06
2016-02-04T04:55:29.497Z,1015.03
2016-02-04T04:56:29.562Z,1015.02
2016-02-04T04:57:34.005Z,1015.04
2016-02-04T04:58:29.645Z,1015
2016-02-04T04:59:29.696Z,1015.02
2016-02-04T05:00:29.761Z,1015.03
2016-02-04T05:01:29.810Z,1015.08
2016-02-04T05:02:29.860Z,1015.1
2016-02-04T05:03:29.925Z,1015.07
2016-02-04T05:04:29.975Z,1015.03
2016-02-04T05:05:30.025Z,1015.04
2016-02-04T05:06:30.074Z,1015.05
2016-02-04T05:07:30.142Z,1015.05
2016-02-04T05:08:34.629Z,1015.03
2016-02-04T05:09:30.226Z,1015.05
2016-02-04T05:10:30.291Z,1015.05
2016-02-04T05:11:30.340Z,1015.04
2016-02-04T05:12:30.390Z,1014.99
2016-02-04T05:13:34.658Z,1014.95
2016-02-04T05:14:30.489Z,1015.03
2016-02-04T05:15:30.555Z,1015.04
2016-02-04T05:16:30.604Z,1015.03
2016-02-04T05:17:30.655Z,1015.07
2016-02-04T05:18:30.708Z,1015.03
2016-02-04T05:19:30.758Z,1014.98
2016-02-04T05:20:30.822Z,1014.99
2016-02-04T05:21:30.872Z,1014.91
2016-02-04T05:22:30.922Z,1014.94
2016-02-04T05:23:30.972Z,1014.9
2016-02-04T05:24:31.023Z,1014.92
2016-02-04T05:25:31.088Z,1014.89
2016-02-04T05:26:31.137Z,1014.94
2016-02-04T05:27:31.187Z,1014.96
2016-02-04T05:28:31.237Z,1014.98
2016-02-04T05:29:31.301Z,1014.89
2016-02-04T05:30:31.351Z,1014.95
2016-02-04T05:31:31.401Z,1014.83
2016-02-04T05:32:31.467Z,1014.82
2016-02-04T05:33:31.517Z,1014.84
2016-02-04T05:34:31.566Z,1014.84
2016-02-04T05:35:31.616Z,1014.87
2016-02-04T05:36:31.665Z,1014.88
2016-02-04T05:37:31.715Z,1014.86
2016-02-04T05:38:31.781Z,1014.77
2016-02-04T05:39:31.819Z,1014.76
2016-02-04T05:40:31.869Z,1014.75
2016-02-04T05:41:31.949Z,1014.66
2016-02-04T05:42:31.983Z,1014.65
2016-02-04T05:43:35.611Z,1014.56
2016-02-04T05:44:35.660Z,1014.6
2016-02-04T05:45:32.147Z,1014.68
2016-02-04T05:46:32.197Z,1014.64
2016-02-04T05:47:32.246Z,1014.64
2016-02-04T05:48:32.312Z,1014.62
2016-02-04T05:49:32.346Z,1014.67
2016-02-04T05:50:32.411Z,1014.64
2016-02-04T05:51:32.464Z,1014.64
2016-02-04T05:52:32.514Z,1014.63
2016-02-04T05:53:32.563Z,1014.68
2016-02-04T05:54:32.613Z,1014.66
2016-02-04T05:55:32.678Z,1014.64
2016-02-04T05:56:32.728Z,1014.65
2016-02-04T05:57:32.778Z,1014.66
2016-02-04T05:58:32.828Z,1014.67
2016-02-04T05:59:32.878Z,1014.73
2016-02-04T06:00:32.942Z,1014.72
2016-02-04T06:01:32.992Z,1014.74
2016-02-04T06:02:33.042Z,1014.77
2016-02-04T06:03:33.095Z,1014.83
2016-02-04T06:04:33.144Z,1014.8
2016-02-04T06:05:33.193Z,1014.78
2016-02-04T06:06:33.258Z,1014.76
2016-02-04T06:07:33.308Z,1014.81
2016-02-04T06:08:33.358Z,1014.83
2016-02-04T06:09:33.408Z,1014.8
2016-02-04T06:10:33.456Z,1014.83
2016-02-04T06:11:33.525Z,1014.86
2016-02-04T06:12:33.574Z,1014.79
2016-02-04T06:13:33.625Z,1014.8
2016-02-04T06:14:33.674Z,1014.79
2016-02-04T06:15:33.723Z,1014.76
2016-02-04T06:16:33.774Z,1014.79
2016-02-04T06:17:33.841Z,1014.8
2016-02-04T06:18:38.078Z,1014.85
2016-02-04T06:19:33.937Z,1014.84
2016-02-04T06:20:33.987Z,1014.78
2016-02-04T06:21:34.037Z,1014.82
2016-02-04T06:22:34.103Z,1014.82
2016-02-04T06:23:34.154Z,1014.89
2016-02-04T06:24:34.202Z,1014.81
2016-02-04T06:25:38.580Z,1014.83
2016-02-04T06:26:34.302Z,1014.81
2016-02-04T06:27:34.367Z,1014.77
2016-02-04T06:28:34.417Z,1014.81
2016-02-04T06:29:34.466Z,1014.79
2016-02-04T06:30:34.517Z,1014.8
2016-02-04T06:31:34.582Z,1014.79
2016-02-04T06:32:34.632Z,1014.74
2016-02-04T06:33:34.681Z,1014.76
2016-02-04T06:34:34.730Z,1014.72
2016-02-04T06:35:34.781Z,1014.71
2016-02-04T06:36:39.284Z,1014.72
2016-02-04T06:37:34.897Z,1014.73
2016-02-04T06:38:34.948Z,1014.72
2016-02-04T06:39:34.998Z,1014.72
2016-02-04T06:40:35.047Z,1014.66
2016-02-04T06:41:35.097Z,1014.71
2016-02-04T06:42:35.163Z,1014.69
2016-02-04T06:43:35.212Z,1014.72
2016-02-04T06:44:35.262Z,1014.75
2016-02-04T06:45:35.312Z,1014.69
2016-02-04T06:46:35.361Z,1014.72
2016-02-04T06:47:35.427Z,1014.67
2016-02-04T06:48:35.476Z,1014.64
2016-02-04T06:49:35.525Z,1014.65
2016-02-04T06:50:35.575Z,1014.65
2016-02-04T06:51:35.641Z,1014.66
2016-02-04T06:52:35.681Z,1014.7
2016-02-04T06:53:35.730Z,1014.73
2016-02-04T06:54:35.794Z,1014.71
2016-02-04T06:55:35.845Z,1014.67
2016-02-04T06:56:35.894Z,1014.66
2016-02-04T06:57:35.943Z,1014.7
2016-02-04T06:58:35.993Z,1014.63
2016-02-04T06:59:36.058Z,1014.61
2016-02-04T07:00:36.108Z,1014.65
2016-02-04T07:01:36.158Z,1014.62
2016-02-04T07:02:36.212Z,1014.63
2016-02-04T07:03:36.261Z,1014.54
2016-02-04T07:04:36.310Z,1014.59
2016-02-04T07:05:36.376Z,1014.57
2016-02-04T07:06:36.425Z,1014.54
2016-02-04T07:07:36.475Z,1014.56
2016-02-04T07:08:36.525Z,1014.61
2016-02-04T07:09:36.573Z,1014.52
2016-02-04T07:10:36.639Z,1014.61
2016-02-04T07:11:36.689Z,1014.54
2016-02-04T07:12:36.739Z,1014.52
2016-02-04T07:13:36.788Z,1014.55
2016-02-04T07:14:36.838Z,1014.56
2016-02-04T07:15:36.891Z,1014.46
2016-02-04T07:16:36.956Z,1014.49
2016-02-04T07:17:37.006Z,1014.46
2016-02-04T07:18:37.055Z,1014.53
2016-02-04T07:19:37.105Z,1014.45
2016-02-04T07:20:37.171Z,1014.49
2016-02-04T07:21:37.214Z,1014.55
2016-02-04T07:22:37.263Z,1014.5
2016-02-04T07:23:37.312Z,1014.49
2016-02-04T07:24:37.378Z,1014.47
2016-02-04T07:25:37.427Z,1014.54
2016-02-04T07:26:37.477Z,1014.51
2016-02-04T07:27:37.530Z,1014.51
2016-02-04T07:28:37.579Z,1014.52
2016-02-04T07:29:37.644Z,1014.54
2016-02-04T07:30:37.693Z,1014.48
2016-02-04T07:31:37.744Z,1014.47
2016-02-04T07:32:37.796Z,1014.49
2016-02-04T07:33:37.846Z,1014.39
2016-02-04T07:34:37.896Z,1014.44
2016-02-04T07:35:37.962Z,1014.4
2016-02-04T07:36:38.012Z,1014.38
2016-02-04T07:37:38.061Z,1014.39
2016-02-04T07:38:38.126Z,1014.43
2016-02-04T07:39:38.162Z,1014.44
2016-02-04T07:40:38.211Z,1014.37
2016-02-04T07:41:38.278Z,1014.37
2016-02-04T07:42:38.328Z,1014.3
2016-02-04T07:43:38.377Z,1014.33
2016-02-04T07:44:38.427Z,1014.27
2016-02-04T07:45:38.477Z,1014.28
2016-02-04T07:46:43.106Z,1014.28
2016-02-04T07:47:38.590Z,1014.27
2016-02-04T07:48:38.640Z,1014.28
2016-02-04T07:49:38.689Z,1014.25
2016-02-04T07:50:38.739Z,1014.26
2016-02-04T07:51:38.791Z,1014.3
2016-02-04T07:52:38.843Z,1014.28
2016-02-04T07:53:42.099Z,1014.21
2016-02-04T07:54:38.960Z,1014.24
2016-02-04T07:55:39.009Z,1014.24
2016-02-04T07:56:39.059Z,1014.25
2016-02-04T07:57:39.108Z,1014.25
2016-02-04T07:58:39.173Z,1014.3
2016-02-04T07:59:39.211Z,1014.28
2016-02-04T08:00:39.277Z,1014.21
2016-02-04T08:01:39.327Z,1014.18
2016-02-04T08:02:39.377Z,1014.16
2016-02-04T08:03:39.425Z,1014.12
2016-02-04T08:04:39.479Z,1014.1
2016-02-04T08:05:39.528Z,1014.04
2016-02-04T08:06:39.582Z,1013.99
2016-02-04T08:07:39.647Z,1014
2016-02-04T08:08:39.697Z,1013.99
2016-02-04T08:09:39.762Z,1013.98
2016-02-04T08:10:39.796Z,1013.94
2016-02-04T08:11:39.847Z,1013.93
2016-02-04T08:12:39.912Z,1013.89
2016-02-04T08:13:39.961Z,1013.87
2016-02-04T08:14:40.012Z,1013.86
2016-02-04T08:15:40.078Z,1013.82
2016-02-04T08:16:40.111Z,1013.77
2016-02-04T08:17:40.176Z,1013.77
2016-02-04T08:18:40.213Z,1013.81
2016-02-04T08:19:40.278Z,1013.78
2016-02-04T08:20:40.328Z,1013.83
2016-02-04T08:21:40.378Z,1013.83
2016-02-04T08:22:40.427Z,1013.82
2016-02-04T08:23:44.164Z,1013.84
2016-02-04T08:24:44.433Z,1013.88
2016-02-04T08:25:40.592Z,1013.87
2016-02-04T08:26:40.641Z,1013.87
2016-02-04T08:27:40.691Z,1013.88
2016-02-04T08:28:40.741Z,1013.87
2016-02-04T08:29:40.805Z,1013.84
2016-02-04T08:30:40.855Z,1013.87
2016-02-04T08:31:40.904Z,1013.79
2016-02-04T08:32:40.954Z,1013.82
2016-02-04T08:33:41.004Z,1013.81
2016-02-04T08:34:41.053Z,1013.78
2016-02-04T08:35:41.118Z,1013.72
2016-02-04T08:36:41.168Z,1013.7
2016-02-04T08:37:41.218Z,1013.71
2016-02-04T08:38:41.268Z,1013.75
2016-02-04T08:39:41.755Z,1013.68
2016-02-04T08:40:41.383Z,1013.69
2016-02-04T08:41:41.432Z,1013.69
2016-02-04T08:42:41.482Z,1013.63
2016-02-04T08:43:41.536Z,1013.6
2016-02-04T08:44:41.586Z,1013.59
2016-02-04T08:45:41.636Z,1013.6
2016-02-04T08:46:41.686Z,1013.53
2016-02-04T08:47:41.736Z,1013.54
2016-02-04T08:48:41.801Z,1013.59
2016-02-04T08:49:41.850Z,1013.6
2016-02-04T08:50:41.900Z,1013.64
2016-02-04T08:51:41.947Z,1013.63
2016-02-04T08:52:41.997Z,1013.6
2016-02-04T08:53:42.061Z,1013.56
2016-02-04T08:54:42.111Z,1013.5
2016-02-04T08:55:42.160Z,1013.45
2016-02-04T08:56:42.211Z,1013.44
2016-02-04T08:57:42.260Z,1013.5
2016-02-04T08:58:42.310Z,1013.49
2016-02-04T08:59:42.359Z,1013.48
2016-02-04T09:00:42.424Z,1013.44
2016-02-04T09:01:42.474Z,1013.45
2016-02-04T09:02:42.523Z,1013.4
2016-02-04T09:03:42.589Z,1013.4
2016-02-04T09:04:42.624Z,1013.43
2016-02-04T09:05:42.985Z,1013.41
2016-02-04T09:06:43.348Z,1013.41
2016-02-04T09:07:43.257Z,1013.42
2016-02-04T09:08:42.885Z,1013.39
2016-02-04T09:09:43.215Z,1013.42
2016-02-04T09:10:43.484Z,1013.4
2016-02-04T09:11:43.050Z,1013.4
2016-02-04T09:12:43.599Z,1013.36
2016-02-04T09:13:43.852Z,1013.36
2016-02-04T09:14:43.420Z,1013.35
2016-02-04T09:15:43.204Z,1013.39
2016-02-04T09:16:43.254Z,1013.32
2016-02-04T09:17:43.304Z,1013.46
2016-02-04T09:18:43.370Z,1013.39
2016-02-04T09:19:43.419Z,1013.39
2016-02-04T09:20:43.463Z,1013.43
2016-02-04T09:21:44.199Z,1013.37
2016-02-04T09:22:43.560Z,1013.37
2016-02-04T09:23:43.629Z,1013.36
2016-02-04T09:24:43.678Z,1013.35
2016-02-04T09:25:43.728Z,1013.34
2016-02-04T09:26:43.776Z,1013.37
2016-02-04T09:27:43.826Z,1013.35
2016-02-04T09:28:43.892Z,1013.35
2016-02-04T09:29:43.941Z,1013.37
2016-02-04T09:30:43.992Z,1013.32
2016-02-04T09:31:44.041Z,1013.42
2016-02-04T09:32:44.965Z,1013.4
2016-02-04T09:33:44.141Z,1013.35
2016-02-04T09:34:44.191Z,1013.57
2016-02-04T09:35:44.240Z,1013.3
2016-02-04T09:36:44.305Z,1013.29
2016-02-04T09:37:44.354Z,1013.26
2016-02-04T09:38:44.404Z,1013.3
2016-02-04T09:39:44.470Z,1013.27
2016-02-04T09:40:44.503Z,1013.2
2016-02-04T09:41:44.568Z,1013.17
2016-02-04T09:42:44.618Z,1013.21
2016-02-04T09:43:44.667Z,1013.22
2016-02-04T09:44:44.717Z,1013.24
2016-02-04T09:45:44.767Z,1013.31
2016-02-04T09:46:44.817Z,1013.29
2016-02-04T09:47:44.882Z,1013.34
2016-02-04T09:48:44.932Z,1013.39
2016-02-04T09:49:44.981Z,1013.39
2016-02-04T09:50:45.033Z,1013.37
2016-02-04T09:51:45.082Z,1013.37
2016-02-04T09:52:45.132Z,1013.42
2016-02-04T09:53:45.180Z,1013.39
2016-02-04T09:54:45.234Z,1013.48
2016-02-04T09:55:45.283Z,1013.5
2016-02-04T09:56:45.350Z,1013.49
2016-02-04T09:57:45.399Z,1013.48
2016-02-04T09:58:45.449Z,1013.47
2016-02-04T09:59:45.498Z,1013.48
2016-02-04T10:00:45.548Z,1013.5
2016-02-04T10:01:45.614Z,1013.46
2016-02-04T10:02:45.651Z,1013.47
2016-02-04T10:03:45.700Z,1013.42
2016-02-04T10:04:45.765Z,1013.36
2016-02-04T10:05:45.814Z,1013.33
2016-02-04T10:06:45.865Z,1013.32
2016-02-04T10:07:45.915Z,1013.31
2016-02-04T10:08:45.965Z,1013.25
2016-02-04T10:09:46.014Z,1013.29
2016-02-04T10:10:46.063Z,1013.26
2016-02-04T10:11:46.128Z,1013.22
2016-02-04T10:12:46.179Z,1013.22
2016-02-04T10:13:46.228Z,1013.26
2016-02-04T10:14:46.278Z,1013.16
2016-02-04T10:15:46.530Z,1013.16
2016-02-04T10:16:46.579Z,1013.14
2016-02-04T10:17:46.439Z,1013.07
2016-02-04T10:18:46.489Z,1013.09
2016-02-04T10:19:46.540Z,1013.05
2016-02-04T10:20:46.589Z,1013.13
2016-02-04T10:21:46.625Z,1013.08
2016-02-04T10:22:46.663Z,1013.09
2016-02-04T10:23:46.701Z,1013.04
2016-02-04T10:24:46.739Z,1013.04
2016-02-04T10:25:46.776Z,1013
2016-02-04T10:26:46.883Z,1013
2016-02-04T10:27:46.882Z,1013.02
2016-02-04T10:28:46.927Z,1013
2016-02-04T10:29:46.973Z,1012.96
2016-02-04T10:30:47.018Z,1012.95
2016-02-04T10:31:47.065Z,1012.9
2016-02-04T10:32:47.113Z,1012.88
2016-02-04T10:33:47.177Z,1012.83
2016-02-04T10:34:47.226Z,1012.85
2016-02-04T10:35:47.274Z,1012.82
2016-02-04T10:36:47.322Z,1012.78
2016-02-04T10:37:47.372Z,1012.79
2016-02-04T10:38:47.421Z,1012.82
2016-02-04T10:39:47.470Z,1012.7
2016-02-04T10:40:47.535Z,1012.76
2016-02-04T10:41:47.584Z,1012.73
2016-02-04T10:42:47.930Z,1012.68
2016-02-04T10:43:47.683Z,1012.67
2016-02-04T10:44:47.735Z,1012.64
2016-02-04T10:45:47.785Z,1012.6
2016-02-04T10:46:47.866Z,1012.6
2016-02-04T10:47:47.884Z,1012.56
2016-02-04T10:48:47.949Z,1012.59
2016-02-04T10:49:47.999Z,1012.52
2016-02-04T10:50:48.049Z,1012.46
2016-02-04T10:51:48.442Z,1012.47
2016-02-04T10:52:48.149Z,1012.42
2016-02-04T10:53:48.197Z,1012.36
2016-02-04T10:54:48.264Z,1012.36
2016-02-04T10:55:48.314Z,1012.39
2016-02-04T10:56:48.364Z,1012.39
2016-02-04T10:57:48.413Z,1012.36
2016-02-04T10:58:48.462Z,1012.33
2016-02-04T10:59:48.544Z,1012.36
2016-02-04T11:00:48.563Z,1012.32
2016-02-04T11:01:48.643Z,1012.29
2016-02-04T11:02:48.677Z,1012.28
2016-02-04T11:03:48.727Z,1012.3
2016-02-04T11:04:48.777Z,1012.23
2016-02-04T11:05:48.826Z,1012.23
2016-02-04T11:06:48.880Z,1012.22
2016-02-04T11:07:48.930Z,1012.2
2016-02-04T11:08:49.385Z,1012.24
2016-02-04T11:09:49.044Z,1012.23
2016-02-04T11:10:49.094Z,1012.18
2016-02-04T11:11:49.144Z,1012.22
2016-02-04T11:12:49.194Z,1012.18
2016-02-04T11:13:49.244Z,1012.14
2016-02-04T11:14:49.293Z,1012.19
2016-02-04T11:15:49.359Z,1012.17
2016-02-04T11:16:49.409Z,1012.08
2016-02-04T11:17:49.458Z,1012.06
2016-02-04T11:18:49.525Z,1012.03
2016-02-04T11:19:49.558Z,1012.07
2016-02-04T11:20:49.624Z,1012
2016-02-04T11:21:49.688Z,1011.99
2016-02-04T11:22:49.754Z,1011.95
2016-02-04T11:23:49.772Z,1011.94
2016-02-04T11:24:49.821Z,1011.92
2016-02-04T11:25:49.870Z,1011.92
2016-02-04T11:26:49.921Z,1011.87
2016-02-04T11:27:49.971Z,1011.81
2016-02-04T11:28:50.020Z,1011.82
2016-02-04T11:29:50.085Z,1011.82
2016-02-04T11:30:50.135Z,1011.81
2016-02-04T11:31:50.190Z,1011.81
2016-02-04T11:32:50.240Z,1011.78
2016-02-04T11:33:50.289Z,1011.77
2016-02-04T11:34:50.339Z,1011.76
2016-02-04T11:35:50.389Z,1011.74
2016-02-04T11:36:50.454Z,1011.7
2016-02-04T11:37:50.503Z,1011.69
2016-02-04T11:38:50.554Z,1011.66
2016-02-04T11:39:50.603Z,1011.64
2016-02-04T11:40:50.653Z,1011.62
2016-02-04T11:41:50.702Z,1011.63
2016-02-04T11:42:50.751Z,1011.58
2016-02-04T11:43:50.806Z,1011.59
2016-02-04T11:44:50.855Z,1011.53
2016-02-04T11:45:50.920Z,1011.51
2016-02-04T11:46:50.970Z,1011.46
2016-02-04T11:47:51.035Z,1011.44
2016-02-04T11:48:51.085Z,1011.4
2016-02-04T11:49:51.118Z,1011.42
2016-02-04T11:50:51.168Z,1011.39
2016-02-04T11:51:51.236Z,1011.41
2016-02-04T11:52:51.285Z,1011.41
2016-02-04T11:53:51.335Z,1011.41
2016-02-04T11:54:51.384Z,1011.39
2016-02-04T11:55:51.437Z,1011.4
2016-02-04T11:56:51.486Z,1011.4
2016-02-04T11:57:51.567Z,1011.4
2016-02-04T11:58:51.601Z,1011.42
2016-02-04T11:59:51.650Z,1011.42
2016-02-04T12:00:51.715Z,1011.32
2016-02-04T12:01:51.750Z,1011.27
2016-02-04T12:02:51.799Z,1011.3
2016-02-04T12:03:51.849Z,1011.28
2016-02-04T12:04:51.899Z,1011.27
2016-02-04T12:05:51.949Z,1011.27
2016-02-04T12:06:52.015Z,1011.25
2016-02-04T12:07:52.063Z,1011.17
2016-02-04T12:08:52.113Z,1011.21